Observation data for Morton on 07/20/2019      Previous  Date       Current Mesonet Observations  Soil Data  Daily Summary Page  Observations in Plain Language
KMNS 200500Z 18014G19KT 29/11 A2996 RMK A01 T02910114  RH  035%=      5-min Rain = 0
KMNS 200505Z 18014G19KT 29/11 A2996 RMK A01 T02900114  RH  035%=      5-min Rain = 0
KMNS 200510Z 18014G20KT 29/11 A2996 RMK A01 T02890113  RH  035%=      5-min Rain = 0
KMNS 200515Z 17014G19KT 29/11 A2996 RMK A01 T02890113  RH  035%=      5-min Rain = 0
KMNS 200520Z 18012G17KT 29/11 A2997 RMK A01 T02860112  RH  035%=      5-min Rain = 0
KMNS 200525Z 18013G18KT 29/11 A2997 RMK A01 T02850112  RH  035%=      5-min Rain = 0
KMNS 200530Z 18013G20KT 28/11 A2997 RMK A01 T02840112  RH  036%=      5-min Rain = 0
KMNS 200535Z 18013G18KT 28/11 A2997 RMK A01 T02830112  RH  036%=      5-min Rain = 0
KMNS 200540Z 18013G18KT 28/11 A2997 RMK A01 T02820112  RH  036%=      5-min Rain = 0
KMNS 200545Z 18013G18KT 28/11 A2997 RMK A01 T02800112  RH  036%=      5-min Rain = 0
KMNS 200550Z 18015KT 28/11 A2997 RMK A01 T02800111  RH  036%=      5-min Rain = 0
KMNS 200555Z 17014KT 28/11 A2997 RMK A01 T02790110  RH  036%=      5-min Rain = 0
KMNS 200600Z 18013G19KT 28/11 A2997 RMK A01 T02780109  RH  036%=      5-min Rain = 0
KMNS 200605Z 18013G18KT 28/11 A2997 RMK A01 T02770108  RH  036%=      5-min Rain = 0
KMNS 200610Z 18015KT 28/11 A2997 RMK A01 T02770106  RH  036%=      5-min Rain = 0
KMNS 200615Z 18014KT 28/11 A2997 RMK A01 T02760105  RH  035%=      5-min Rain = 0
KMNS 200620Z 18015KT 28/10 A2997 RMK A01 T02760103  RH  035%=      5-min Rain = 0
KMNS 200625Z 18014KT 27/10 A2997 RMK A01 T02740102  RH  035%=      5-min Rain = 0
KMNS 200630Z 18014KT 27/10 A2997 RMK A01 T02730101  RH  035%=      5-min Rain = 0
KMNS 200635Z 18014G19KT 27/10 A2997 RMK A01 T02730100  RH  035%=      5-min Rain = 0
KMNS 200640Z 18014KT 27/10 A2997 RMK A01 T02710099  RH  035%=      5-min Rain = 0
KMNS 200645Z 18014KT 27/10 A2997 RMK A01 T02710099  RH  035%=      5-min Rain = 0
KMNS 200650Z 18016G21KT 27/10 A2997 RMK A01 T02700099  RH  035%=      5-min Rain = 0
KMNS 200655Z 18016G21KT 27/10 A2997 RMK A01 T02700098  RH  035%=      5-min Rain = 0
KMNS 200700Z 18016G22KT 27/10 A2996 RMK A01 T02700098  RH  035%=      5-min Rain = 0
KMNS 200705Z 18016G23KT 27/10 A2996 RMK A01 T02690098  RH  035%=      5-min Rain = 0
KMNS 200710Z 18015G21KT 27/10 A2996 RMK A01 T02680099  RH  036%=      5-min Rain = 0
KMNS 200715Z 18015G21KT 27/10 A2997 RMK A01 T02670099  RH  036%=      5-min Rain = 0
KMNS 200720Z 18014KT 27/10 A2997 RMK A01 T02650099  RH  036%=      5-min Rain = 0
KMNS 200725Z 18014G22KT 26/10 A2997 RMK A01 T02640099  RH  037%=      5-min Rain = 0
KMNS 200730Z 18014G20KT 26/10 A2997 RMK A01 T02630099  RH  037%=      5-min Rain = 0
KMNS 200735Z 18015G20KT 26/10 A2997 RMK A01 T02620099  RH  037%=      5-min Rain = 0
KMNS 200740Z 18014KT 26/10 A2997 RMK A01 T02610100  RH  037%=      5-min Rain = 0
KMNS 200745Z 18013KT 26/10 A2997 RMK A01 T02600100  RH  038%=      5-min Rain = 0
KMNS 200750Z 18013KT 26/10 A2997 RMK A01 T02590100  RH  038%=      5-min Rain = 0
KMNS 200755Z 18013KT 26/10 A2997 RMK A01 T02580100  RH  038%=      5-min Rain = 0
KMNS 200800Z 18011KT 26/10 A2997 RMK A01 T02560101  RH  039%=      5-min Rain = 0
KMNS 200805Z 18011KT 26/10 A2997 RMK A01 T02560101  RH  039%=      5-min Rain = 0
KMNS 200810Z 18012KT 26/10 A2997 RMK A01 T02550102  RH  039%=      5-min Rain = 0
KMNS 200815Z 18013KT 26/10 A2997 RMK A01 T02550102  RH  039%=      5-min Rain = 0
KMNS 200820Z 18012KT 25/10 A2997 RMK A01 T02540103  RH  040%=      5-min Rain = 0
KMNS 200825Z 18011KT 25/10 A2997 RMK A01 T02530103  RH  040%=      5-min Rain = 0
KMNS 200830Z 18011KT 25/10 A2997 RMK A01 T02520103  RH  040%=      5-min Rain = 0
KMNS 200835Z 18011KT 25/10 A2997 RMK A01 T02510104  RH  041%=      5-min Rain = 0
KMNS 200840Z 18010KT 25/10 A2997 RMK A01 T02490104  RH  041%=      5-min Rain = 0
KMNS 200845Z 18010KT 25/10 A2997 RMK A01 T02470104  RH  042%=      5-min Rain = 0
KMNS 200850Z 18010KT 25/11 A2997 RMK A01 T02450105  RH  043%=      5-min Rain = 0
KMNS 200855Z 18011KT 25/11 A2996 RMK A01 T02450105  RH  043%=      5-min Rain = 0
KMNS 200900Z 19009KT 24/11 A2996 RMK A01 T02420105  RH  043%=      5-min Rain = 0
KMNS 200905Z 19009KT 24/11 A2996 RMK A01 T02420105  RH  044%=      5-min Rain = 0
KMNS 200910Z 18009KT 24/11 A2996 RMK A01 T02410105  RH  044%=      5-min Rain = 0
KMNS 200915Z 18009KT 24/11 A2996 RMK A01 T02400106  RH  044%=      5-min Rain = 0
KMNS 200920Z 18009KT 24/11 A2996 RMK A01 T02380106  RH  045%=      5-min Rain = 0
KMNS 200925Z 18009KT 24/11 A2996 RMK A01 T02370106  RH  045%=      5-min Rain = 0
KMNS 200930Z 18009KT 24/11 A2996 RMK A01 T02370107  RH  045%=      5-min Rain = 0
KMNS 200935Z 17009KT 24/11 A2996 RMK A01 T02370107  RH  045%=      5-min Rain = 0
KMNS 200940Z 18009KT 24/11 A2996 RMK A01 T02360107  RH  046%=      5-min Rain = 0
KMNS 200945Z 18009KT 24/11 A2996 RMK A01 T02360107  RH  046%=      5-min Rain = 0
KMNS 200950Z 18010KT 24/11 A2996 RMK A01 T02350107  RH  046%=      5-min Rain = 0
KMNS 200955Z 18010KT 24/11 A2996 RMK A01 T02350108  RH  046%=      5-min Rain = 0
KMNS 201000Z 18010KT 24/11 A2996 RMK A01 T02350108  RH  046%=      5-min Rain = 0
KMNS 201005Z 18010KT 23/11 A2996 RMK A01 T02340108  RH  046%=      5-min Rain = 0
KMNS 201010Z 18010KT 23/11 A2996 RMK A01 T02340108  RH  046%=      5-min Rain = 0
KMNS 201015Z 18011KT 23/11 A2996 RMK A01 T02330108  RH  047%=      5-min Rain = 0
KMNS 201020Z 18011KT 23/11 A2996 RMK A01 T02320108  RH  047%=      5-min Rain = 0
KMNS 201025Z 19010KT 23/11 A2996 RMK A01 T02300108  RH  048%=      5-min Rain = 0
KMNS 201030Z 18008KT 23/11 A2996 RMK A01 T02270109  RH  049%=      5-min Rain = 0
KMNS 201035Z 18008KT 23/11 A2996 RMK A01 T02260109  RH  049%=      5-min Rain = 0
KMNS 201040Z 18008KT 23/11 A2996 RMK A01 T02250109  RH  050%=      5-min Rain = 0
KMNS 201045Z 18008KT 22/11 A2996 RMK A01 T02240109  RH  050%=      5-min Rain = 0
KMNS 201050Z 18008KT 22/11 A2996 RMK A01 T02220110  RH  051%=      5-min Rain = 0
KMNS 201055Z 18009KT 22/11 A2996 RMK A01 T02210110  RH  051%=      5-min Rain = 0
KMNS 201100Z 18009KT 22/11 A2996 RMK A01 T02210111  RH  051%=      5-min Rain = 0
KMNS 201105Z 17009KT 22/11 A2996 RMK A01 T02200112  RH  052%=      5-min Rain = 0
KMNS 201110Z 17009KT 22/11 A2996 RMK A01 T02200112  RH  052%=      5-min Rain = 0
KMNS 201115Z 17009KT 22/11 A2996 RMK A01 T02190112  RH  053%=      5-min Rain = 0
KMNS 201120Z 17009KT 22/11 A2996 RMK A01 T02170113  RH  053%=      5-min Rain = 0
KMNS 201125Z 17009KT 22/11 A2996 RMK A01 T02160113  RH  054%=      5-min Rain = 0
KMNS 201130Z 17009KT 22/11 A2996 RMK A01 T02160113  RH  054%=      5-min Rain = 0
KMNS 201135Z 18009KT 22/11 A2996 RMK A01 T02150113  RH  054%=      5-min Rain = 0
KMNS 201140Z 18009KT 22/11 A2996 RMK A01 T02150114  RH  054%=      5-min Rain = 0
KMNS 201145Z 18010KT 22/11 A2996 RMK A01 T02150114  RH  054%=      5-min Rain = 0
KMNS 201150Z 18010KT 22/12 A2996 RMK A01 T02150115  RH  055%=      5-min Rain = 0
KMNS 201155Z 18011KT 22/12 A2996 RMK A01 T02150115  RH  055%=      5-min Rain = 0
KMNS 201200Z 17012KT 22/12 A2996 RMK A01 T02150116  RH  055%=      5-min Rain = 0
KMNS 201205Z 18010G15KT 22/12 A2997 RMK A01 T02150116  RH  055%=      5-min Rain = 0
KMNS 201210Z 18011KT 22/12 A2997 RMK A01 T02150116  RH  055%=      5-min Rain = 0
KMNS 201215Z 18009KT 22/12 A2997 RMK A01 T02150116  RH  055%=      5-min Rain = 0
KMNS 201220Z 18010KT 22/12 A2997 RMK A01 T02160117  RH  055%=      5-min Rain = 0
KMNS 201225Z 17009KT 22/12 A2997 RMK A01 T02170117  RH  055%=      5-min Rain = 0
KMNS 201230Z 17010KT 22/12 A2997 RMK A01 T02180118  RH  055%=      5-min Rain = 0
KMNS 201235Z 17009KT 22/12 A2997 RMK A01 T02190119  RH  055%=      5-min Rain = 0
KMNS 201240Z 17009KT 22/12 A2997 RMK A01 T02200119  RH  055%=      5-min Rain = 0
KMNS 201245Z 17010KT 22/12 A2997 RMK A01 T02220120  RH  054%=      5-min Rain = 0
KMNS 201250Z 18010KT 22/12 A2997 RMK A01 T02240120  RH  054%=      5-min Rain = 0
KMNS 201255Z 18009G14KT 23/12 A2997 RMK A01 T02260121  RH  054%=      5-min Rain = 0
KMNS 201300Z 18010KT 23/12 A2997 RMK A01 T02280122  RH  053%=      5-min Rain = 0
KMNS 201305Z 18010KT 23/12 A2997 RMK A01 T02290123  RH  053%=      5-min Rain = 0
KMNS 201310Z 18011KT 23/12 A2997 RMK A01 T02290123  RH  053%=      5-min Rain = 0
KMNS 201315Z 18011KT 23/12 A2997 RMK A01 T02320124  RH  053%=      5-min Rain = 0
KMNS 201320Z 18012KT 24/13 A2997 RMK A01 T02380125  RH  051%=      5-min Rain = 0
KMNS 201325Z 18012KT 24/13 A2997 RMK A01 T02400126  RH  051%=      5-min Rain = 0
KMNS 201330Z 18011KT 24/13 A2996 RMK A01 T02440127  RH  050%=      5-min Rain = 0
KMNS 201335Z 18012KT 25/13 A2997 RMK A01 T02480128  RH  049%=      5-min Rain = 0
KMNS 201340Z 18012KT 25/13 A2997 RMK A01 T02520129  RH  048%=      5-min Rain = 0
KMNS 201345Z 18015G20KT 25/13 A2997 RMK A01 T02540127  RH  047%=      5-min Rain = 0
KMNS 201350Z 19015G21KT 25/13 A2997 RMK A01 T02530127  RH  047%=      5-min Rain = 0
KMNS 201355Z 19015G21KT 26/13 A2997 RMK A01 T02550128  RH  047%=      5-min Rain = 0
KMNS 201400Z 19014G21KT 26/13 A2997 RMK A01 T02580129  RH  047%=      5-min Rain = 0
KMNS 201405Z 19014G20KT 26/13 A2997 RMK A01 T02600130  RH  046%=      5-min Rain = 0
KMNS 201410Z 19015KT 26/13 A2997 RMK A01 T02610130  RH  046%=      5-min Rain = 0
KMNS 201415Z 19014G19KT 27/13 A2997 RMK A01 T02660131  RH  045%=      5-min Rain = 0
KMNS 201420Z 20013KT 27/13 A2997 RMK A01 T02680132  RH  045%=      5-min Rain = 0
KMNS 201425Z 19012KT 27/13 A2997 RMK A01 T02720132  RH  044%=      5-min Rain = 0
KMNS 201430Z 19014KT 27/13 A2997 RMK A01 T02740130  RH  043%=      5-min Rain = 0
KMNS 201435Z 19013KT 28/13 A2997 RMK A01 T02750131  RH  043%=      5-min Rain = 0
KMNS 201440Z 20013KT 28/13 A2997 RMK A01 T02780131  RH  042%=      5-min Rain = 0
KMNS 201445Z 20013KT 28/13 A2997 RMK A01 T02810131  RH  041%=      5-min Rain = 0
KMNS 201450Z 19015KT 28/13 A2997 RMK A01 T02810129  RH  041%=      5-min Rain = 0
KMNS 201455Z 19014KT 28/13 A2997 RMK A01 T02830130  RH  040%=      5-min Rain = 0
KMNS 201500Z 19015KT 29/13 A2997 RMK A01 T02850130  RH  040%=      5-min Rain = 0
KMNS 201505Z 19014KT 29/13 A2997 RMK A01 T02880130  RH  039%=      5-min Rain = 0
KMNS 201510Z 19013KT 29/13 A2998 RMK A01 T02920131  RH  039%=      5-min Rain = 0
KMNS 201515Z 19015KT 30/13 A2998 RMK A01 T02950130  RH  038%=      5-min Rain = 0
KMNS 201520Z 19014KT 30/13 A2998 RMK A01 T02960130  RH  038%=      5-min Rain = 0
KMNS 201525Z 19015KT 30/13 A2997 RMK A01 T02960129  RH  037%=      5-min Rain = 0
KMNS 201530Z 20014KT 30/13 A2997 RMK A01 T02980130  RH  037%=      5-min Rain = 0
KMNS 201535Z 20013G19KT 30/13 A2997 RMK A01 T02990131  RH  037%=      5-min Rain = 0
KMNS 201540Z 20011G17KT 31/13 A2997 RMK A01 T03050132  RH  036%=      5-min Rain = 0
KMNS 201545Z 19012G17KT 31/13 A2997 RMK A01 T03050131  RH  036%=      5-min Rain = 0
KMNS 201550Z 20012KT 31/13 A2997 RMK A01 T03060130  RH  036%=      5-min Rain = 0
KMNS 201555Z 20010KT 31/13 A2997 RMK A01 T03120132  RH  035%=      5-min Rain = 0
KMNS 201600Z 20012G19KT 31/13 A2997 RMK A01 T03120130  RH  034%=      5-min Rain = 0
KMNS 201605Z 21012KT 31/13 A2997 RMK A01 T03130130  RH  034%=      5-min Rain = 0
KMNS 201610Z 21010KT 32/13 A2997 RMK A01 T03150131  RH  034%=      5-min Rain = 0
KMNS 201615Z 20010G15KT 32/13 A2997 RMK A01 T03200131  RH  033%=      5-min Rain = 0
KMNS 201620Z 19011KT 32/13 A2997 RMK A01 T03200130  RH  033%=      5-min Rain = 0
KMNS 201625Z 20009G14KT 33/13 A2997 RMK A01 T03290134  RH  032%=      5-min Rain = 0
KMNS 201630Z 19010KT 33/13 A2997 RMK A01 T03250131  RH  032%=      5-min Rain = 0
KMNS 201635Z 20012G17KT 33/13 A2997 RMK A01 T03250131  RH  032%=      5-min Rain = 0
KMNS 201640Z 20009KT 33/13 A2997 RMK A01 T03290132  RH  032%=      5-min Rain = 0
KMNS 201645Z 19010KT 33/13 A2997 RMK A01 T03310130  RH  031%=      5-min Rain = 0
KMNS 201650Z 20010G16KT 34/13 A2997 RMK A01 T03360131  RH  030%=      5-min Rain = 0
KMNS 201655Z 19010G15KT 33/13 A2997 RMK A01 T03340129  RH  030%=      5-min Rain = 0
KMNS 201700Z 19011G18KT 34/13 A2997 RMK A01 T03390130  RH  029%=      5-min Rain = 0
KMNS 201705Z 19009G14KT 34/13 A2997 RMK A01 T03420129  RH  029%=      5-min Rain = 0
KMNS 201710Z 20008G13KT 35/13 A2997 RMK A01 T03460127  RH  028%=      5-min Rain = 0
KMNS 201715Z 19009G15KT 35/13 A2996 RMK A01 T03470128  RH  028%=      5-min Rain = 0
KMNS 201720Z 20011KT 35/13 A2996 RMK A01 T03480125  RH  027%=      5-min Rain = 0
KMNS 201725Z 21011G16KT 35/12 A2996 RMK A01 T03500119  RH  026%=      5-min Rain = 0
KMNS 201730Z 20009KT 36/12 A2996 RMK A01 T03600122  RH  025%=      5-min Rain = 0
KMNS 201735Z 20009G15KT 36/12 A2996 RMK A01 T03600120  RH  025%=      5-min Rain = 0
KMNS 201740Z 20010KT 36/12 A2996 RMK A01 T03580119  RH  025%=      5-min Rain = 0
KMNS 201745Z 21007G14KT 36/12 A2996 RMK A01 T03580116  RH  024%=      5-min Rain = 0
KMNS 201750Z 23010KT 36/11 A2996 RMK A01 T03630109  RH  022%=      5-min Rain = 0
KMNS 201755Z 20007KT 36/11 A2996 RMK A01 T03600111  RH  023%=      5-min Rain = 0
KMNS 201800Z 23008G13KT 37/10 A2995 RMK A01 T03680100  RH  020%=      5-min Rain = 0
KMNS 201805Z 25008KT 37/11 A2995 RMK A01 T03700105  RH  021%=      5-min Rain = 0
KMNS 201810Z 24009KT 37/11 A2995 RMK A01 T03690105  RH  021%=      5-min Rain = 0
KMNS 201815Z 23011KT 37/10 A2995 RMK A01 T03690095  RH  020%=      5-min Rain = 0
KMNS 201820Z 25008KT 37/10 A2995 RMK A01 T03680099  RH  020%=      5-min Rain = 0
KMNS 201825Z 23006G11KT 37/10 A2995 RMK A01 T03710101  RH  020%=      5-min Rain = 0
KMNS 201830Z 19006KT 37/11 A2995 RMK A01 T03710109  RH  021%=      5-min Rain = 0
KMNS 201835Z 22008KT 37/10 A2995 RMK A01 T03710097  RH  020%=      5-min Rain = 0
KMNS 201840Z 21007G13KT 38/11 A2994 RMK A01 T03760107  RH  021%=      5-min Rain = 0
KMNS 201845Z 25006KT 37/11 A2994 RMK A01 T03720110  RH  021%=      5-min Rain = 0
KMNS 201850Z 22009KT 38/11 A2994 RMK A01 T03780105  RH  020%=      5-min Rain = 0
KMNS 201855Z 23007KT 38/10 A2994 RMK A01 T03770099  RH  019%=      5-min Rain = 0
KMNS 201900Z 19007G13KT 38/10 A2994 RMK A01 T03780095  RH  019%=      5-min Rain = 0
KMNS 201905Z 21005KT 38/09 A2994 RMK A01 T03760092  RH  018%=      5-min Rain = 0
KMNS 201910Z 19006KT 38/10 A2994 RMK A01 T03790095  RH  018%=      5-min Rain = 0
KMNS 201915Z 23008G13KT 38/10 A2994 RMK A01 T03810097  RH  019%=      5-min Rain = 0
KMNS 201920Z 22004KT 38/09 A2994 RMK A01 T03800092  RH  018%=      5-min Rain = 0
KMNS 201925Z 21007KT 39/10 A2993 RMK A01 T03870096  RH  018%=      5-min Rain = 0
KMNS 201930Z 21008G13KT 38/09 A2993 RMK A01 T03820094  RH  018%=      5-min Rain = 0
KMNS 201935Z 21008G13KT 39/10 A2993 RMK A01 T03880097  RH  018%=      5-min Rain = 0
KMNS 201940Z 19008KT 39/09 A2993 RMK A01 T03870094  RH  018%=      5-min Rain = 0
KMNS 201945Z 18004G9KT 38/09 A2993 RMK A01 T03770093  RH  019%=      5-min Rain = 0
KMNS 201950Z 15006KT 38/10 A2992 RMK A01 T03770095  RH  019%=      5-min Rain = 0
KMNS 201955Z 18012G18KT 39/09 A2992 RMK A01 T03880091  RH  017%=      5-min Rain = 0
KMNS 202000Z 20008G13KT 39/09 A2992 RMK A01 T03910087  RH  016%=      5-min Rain = 0
KMNS 202005Z 21006KT 38/09 A2992 RMK A01 T03800087  RH  018%=      5-min Rain = 0
KMNS 202010Z 23006G11KT 38/09 A2992 RMK A01 T03830086  RH  017%=      5-min Rain = 0
KMNS 202015Z 18005KT 38/09 A2992 RMK A01 T03830088  RH  017%=      5-min Rain = 0
KMNS 202020Z 16005KT 39/09 A2992 RMK A01 T03870088  RH  017%=      5-min Rain = 0
KMNS 202025Z 16006G15KT 39/09 A2991 RMK A01 T03880088  RH  017%=      5-min Rain = 0
KMNS 202030Z 17010G15KT 40/08 A2991 RMK A01 T03960076  RH  015%=      5-min Rain = 0
KMNS 202035Z 20007G14KT 40/08 A2991 RMK A01 T03950075  RH  015%=      5-min Rain = 0
KMNS 202040Z 22006G13KT 39/07 A2991 RMK A01 T03900071  RH  015%=      5-min Rain = 0
KMNS 202045Z 18007G12KT 40/07 A2991 RMK A01 T03960074  RH  015%=      5-min Rain = 0
KMNS 202050Z 19008KT 40/08 A2991 RMK A01 T04020079  RH  015%=      5-min Rain = 0
KMNS 202055Z 17008G13KT 40/07 A2991 RMK A01 T04010073  RH  014%=      5-min Rain = 0
KMNS 202100Z 16005KT 39/07 A2991 RMK A01 T03940070  RH  014%=      5-min Rain = 0
KMNS 202105Z 19007G13KT 40/07 A2991 RMK A01 T03960070  RH  014%=      5-min Rain = 0
KMNS 202110Z 18005G13KT 39/08 A299 RMK A01 T03940075  RH  015%=      5-min Rain = 0
KMNS 202115Z 14012KT 40/08 A299 RMK A01 T04000078  RH  015%=      5-min Rain = 0
KMNS 202120Z 15011KT 40/08 A299 RMK A01 T03960083  RH  016%=      5-min Rain = 0
KMNS 202125Z 13010KT 39/09 A299 RMK A01 T03920092  RH  017%=      5-min Rain = 0
KMNS 202130Z 19011G16KT 40/09 A2989 RMK A01 T03960087  RH  016%=      5-min Rain = 0
KMNS 202135Z 21008G13KT 40/07 A299 RMK A01 T04000070  RH  014%=      5-min Rain = 0
KMNS 202140Z 18008KT 40/08 A2989 RMK A01 T03990076  RH  015%=      5-min Rain = 0
KMNS 202145Z 15011G17KT 40/10 A2989 RMK A01 T03970095  RH  017%=      5-min Rain = 0
KMNS 202150Z 13013G18KT 39/09 A2989 RMK A01 T03940093  RH  017%=      5-min Rain = 0
KMNS 202155Z 14012G18KT 39/09 A2989 RMK A01 T03920094  RH  017%=      5-min Rain = 0
KMNS 202200Z 15013KT 39/09 A2989 RMK A01 T03930092  RH  017%=      5-min Rain = 0
KMNS 202205Z 14011KT 39/09 A2989 RMK A01 T03940094  RH  017%=      5-min Rain = 0
KMNS 202210Z 15012G20KT 40/09 A2988 RMK A01 T03970092  RH  016%=      5-min Rain = 0
KMNS 202215Z 16014G19KT 40/09 A2988 RMK A01 T03970089  RH  016%=      5-min Rain = 0
KMNS 202220Z 15014G21KT 39/10 A2988 RMK A01 T03930098  RH  018%=      5-min Rain = 0
KMNS 202225Z 16014G19KT 39/09 A2988 RMK A01 T03890094  RH  017%=      5-min Rain = 0
KMNS 202230Z 15014KT 39/09 A2988 RMK A01 T03860092  RH  017%=      5-min Rain = 0
KMNS 202235Z 14012KT 39/09 A2988 RMK A01 T03900094  RH  017%=      5-min Rain = 0
KMNS 202240Z 14011G16KT 39/09 A2988 RMK A01 T03860088  RH  017%=      5-min Rain = 0
KMNS 202245Z 14010G16KT 38/09 A2987 RMK A01 T03820086  RH  017%=      5-min Rain = 0
KMNS 202250Z 14010KT 38/09 A2987 RMK A01 T03830089  RH  017%=      5-min Rain = 0
KMNS 202255Z 15014G19KT 39/09 A2987 RMK A01 T03880093  RH  018%=      5-min Rain = 0
KMNS 202300Z 15014G19KT 39/09 A2987 RMK A01 T03900094  RH  017%=      5-min Rain = 0
KMNS 202305Z 15015G21KT 39/09 A2987 RMK A01 T03890094  RH  017%=      5-min Rain = 0
KMNS 202310Z 15014KT 39/09 A2987 RMK A01 T03880093  RH  017%=      5-min Rain = 0
KMNS 202315Z 15015G21KT 39/09 A2987 RMK A01 T03850092  RH  018%=      5-min Rain = 0
KMNS 202320Z 14015KT 38/09 A2987 RMK A01 T03830089  RH  017%=      5-min Rain = 0
KMNS 202325Z 14013KT 38/09 A2987 RMK A01 T03750089  RH  018%=      5-min Rain = 0
KMNS 202330Z 15013G18KT 38/09 A2987 RMK A01 T03820090  RH  018%=      5-min Rain = 0
KMNS 202335Z 14014KT 38/09 A2987 RMK A01 T03780089  RH  018%=      5-min Rain = 0
KMNS 202340Z 15015G21KT 38/09 A2987 RMK A01 T03800093  RH  018%=      5-min Rain = 0
KMNS 202345Z 15015G20KT 37/09 A2987 RMK A01 T03730094  RH  019%=      5-min Rain = 0
KMNS 202350Z 14015G21KT 38/10 A2986 RMK A01 T03770095  RH  019%=      5-min Rain = 0
KMNS 202355Z 15015G21KT 38/09 A2986 RMK A01 T03760094  RH  019%=      5-min Rain = 0
KMNS 210000Z 15014G19KT 37/09 A2986 RMK A01 T03670093  RH  020%=      5-min Rain = 0
KMNS 210005Z 15016G21KT 37/09 A2986 RMK A01 T03700093  RH  019%=      5-min Rain = 0
KMNS 210010Z 15013G20KT 36/09 A2986 RMK A01 T03630093  RH  020%=      5-min Rain = 0
KMNS 210015Z 15013G19KT 36/10 A2986 RMK A01 T03640098  RH  021%=      5-min Rain = 0
KMNS 210020Z 15016G21KT 37/10 A2986 RMK A01 T03700099  RH  020%=      5-min Rain = 0
KMNS 210025Z 15017G22KT 37/10 A2986 RMK A01 T03690097  RH  020%=      5-min Rain = 0
KMNS 210030Z 15015G20KT 37/10 A2986 RMK A01 T03690099  RH  020%=      5-min Rain = 0
KMNS 210035Z 15014G20KT 37/10 A2986 RMK A01 T03670098  RH  020%=      5-min Rain = 0
KMNS 210040Z 15015G20KT 37/10 A2986 RMK A01 T03670098  RH  020%=      5-min Rain = 0
KMNS 210045Z 16012G20KT 37/10 A2986 RMK A01 T03650102  RH  021%=      5-min Rain = 0
KMNS 210050Z 16013G18KT 36/10 A2986 RMK A01 T03640101  RH  021%=      5-min Rain = 0
KMNS 210055Z 15015KT 36/10 A2986 RMK A01 T03620100  RH  021%=      5-min Rain = 0
KMNS 210100Z 16015G22KT 36/10 A2987 RMK A01 T03600099  RH  021%=      5-min Rain = 0
KMNS 210105Z 15013G18KT 36/10 A2987 RMK A01 T03590102  RH  022%=      5-min Rain = 0
KMNS 210110Z 16013KT 36/10 A2987 RMK A01 T03560103  RH  022%=      5-min Rain = 0
KMNS 210115Z 15012KT 35/11 A2987 RMK A01 T03540105  RH  023%=      5-min Rain = 0
KMNS 210120Z 15013KT 35/11 A2987 RMK A01 T03520105  RH  023%=      5-min Rain = 0
KMNS 210125Z 15012KT 35/11 A2987 RMK A01 T03500105  RH  023%=      5-min Rain = 0
KMNS 210130Z 16011KT 35/11 A2988 RMK A01 T03480106  RH  024%=      5-min Rain = 0
KMNS 210135Z 15011KT 35/11 A2988 RMK A01 T03460107  RH  024%=      5-min Rain = 0
KMNS 210140Z 15011G16KT 34/11 A2988 RMK A01 T03430106  RH  024%=      5-min Rain = 0
KMNS 210145Z 15011KT 34/11 A2988 RMK A01 T03420105  RH  024%=      5-min Rain = 0
KMNS 210150Z 15011KT 34/11 A2988 RMK A01 T03390105  RH  025%=      5-min Rain = 0
KMNS 210155Z 15011G16KT 34/11 A2988 RMK A01 T03370105  RH  025%=      5-min Rain = 0
KMNS 210200Z 15011KT 34/11 A2988 RMK A01 T03350105  RH  025%=      5-min Rain = 0
KMNS 210205Z 15010KT 33/10 A2988 RMK A01 T03330104  RH  026%=      5-min Rain = 0
KMNS 210210Z 16010KT 33/11 A2988 RMK A01 T03300105  RH  026%=      5-min Rain = 0
KMNS 210215Z 16010KT 33/10 A2988 RMK A01 T03290103  RH  026%=      5-min Rain = 0
KMNS 210220Z 15010KT 33/10 A2988 RMK A01 T03270103  RH  026%=      5-min Rain = 0
KMNS 210225Z 16010KT 33/10 A2988 RMK A01 T03260102  RH  026%=      5-min Rain = 0
KMNS 210230Z 16010G15KT 33/10 A2988 RMK A01 T03250101  RH  026%=      5-min Rain = 0
KMNS 210235Z 16011KT 32/10 A2988 RMK A01 T03240101  RH  026%=      5-min Rain = 0
KMNS 210240Z 15010G15KT 32/10 A2989 RMK A01 T03210102  RH  027%=      5-min Rain = 0
KMNS 210245Z 16010KT 32/10 A2989 RMK A01 T03180103  RH  028%=      5-min Rain = 0
KMNS 210250Z 16009KT 32/10 A2989 RMK A01 T03150104  RH  028%=      5-min Rain = 0
KMNS 210255Z 16009KT 31/11 A2989 RMK A01 T03130106  RH  029%=      5-min Rain = 0
KMNS 210300Z 15009KT 31/11 A2989 RMK A01 T03100107  RH  030%=      5-min Rain = 0
KMNS 210305Z 15009KT 31/11 A299 RMK A01 T03080108  RH  030%=      5-min Rain = 0
KMNS 210310Z 15010KT 31/11 A299 RMK A01 T03070109  RH  031%=      5-min Rain = 0
KMNS 210315Z 16009KT 31/11 A299 RMK A01 T03050110  RH  031%=      5-min Rain = 0
KMNS 210320Z 16009G14KT 30/11 A299 RMK A01 T03040111  RH  031%=      5-min Rain = 0
KMNS 210325Z 16009KT 30/11 A2991 RMK A01 T03020111  RH  032%=      5-min Rain = 0
KMNS 210330Z 16009KT 30/11 A2991 RMK A01 T03010112  RH  032%=      5-min Rain = 0
KMNS 210335Z 16009KT 30/11 A2991 RMK A01 T02990112  RH  033%=      5-min Rain = 0
KMNS 210340Z 16008KT 30/11 A2991 RMK A01 T02960112  RH  033%=      5-min Rain = 0
KMNS 210345Z 16008KT 30/11 A2991 RMK A01 T02950112  RH  033%=      5-min Rain = 0
KMNS 210350Z 16009G14KT 30/11 A2992 RMK A01 T02950112  RH  034%=      5-min Rain = 0
KMNS 210355Z 16009KT 29/11 A2992 RMK A01 T02940112  RH  034%=      5-min Rain = 0
KMNS 210400Z 16009KT 29/11 A2992 RMK A01 T02930113  RH  034%=      5-min Rain = 0
KMNS 210405Z 16009G14KT 29/11 A2993 RMK A01 T02930113  RH  034%=      5-min Rain = 0
KMNS 210410Z 17009KT 29/11 A2993 RMK A01 T02930113  RH  034%=      5-min Rain = 0
KMNS 210415Z 16010KT 29/11 A2993 RMK A01 T02920114  RH  034%=      5-min Rain = 0
KMNS 210420Z 16010KT 29/11 A2993 RMK A01 T02910114  RH  035%=      5-min Rain = 0
KMNS 210425Z 16009G14KT 29/11 A2993 RMK A01 T02900114  RH  035%=      5-min Rain = 0
KMNS 210430Z 16009KT 29/11 A2993 RMK A01 T02880114  RH  035%=      5-min Rain = 0
KMNS 210435Z 17010KT 29/12 A2993 RMK A01 T02880115  RH  036%=      5-min Rain = 0
KMNS 210440Z 17009KT 29/12 A2994 RMK A01 T02860116  RH  036%=      5-min Rain = 0
KMNS 210445Z 17010KT 29/12 A2994 RMK A01 T02860116  RH  036%=      5-min Rain = 0
KMNS 210450Z 17011KT 29/12 A2994 RMK A01 T02870117  RH  036%=      5-min Rain = 0
KMNS 210455Z 17010KT 29/12 A2994 RMK A01 T02870117  RH  036%=      5-min Rain = 0

Page generated in 0.0189 seconds.